sensor_id;sensor_type;location;lat;lon;timestamp;temperature;humidity
12438;DHT22;6283;51.330;12.374;2023-04-06T00:01:37;5.80;1.00
12438;DHT22;6283;51.330;12.374;2023-04-06T00:04:03;5.80;1.00
12438;DHT22;6283;51.330;12.374;2023-04-06T00:06:29;5.70;1.00
12438;DHT22;6283;51.330;12.374;2023-04-06T00:08:55;5.80;1.00
12438;DHT22;6283;51.330;12.374;2023-04-06T00:11:22;5.70;1.00
12438;DHT22;6283;51.330;12.374;2023-04-06T00:13:47;5.80;1.00
12438;DHT22;6283;51.330;12.374;2023-04-06T00:16:13;5.80;1.00
12438;DHT22;6283;51.330;12.374;2023-04-06T00:18:39;5.80;1.00
12438;DHT22;6283;51.330;12.374;2023-04-06T00:21:05;5.70;1.00
12438;DHT22;6283;51.330;12.374;2023-04-06T00:23:31;5.80;1.00
12438;DHT22;6283;51.330;12.374;2023-04-06T00:25:57;5.80;1.00
12438;DHT22;6283;51.330;12.374;2023-04-06T00:28:22;5.70;1.00
12438;DHT22;6283;51.330;12.374;2023-04-06T00:30:52;5.90;1.00
12438;DHT22;6283;51.330;12.374;2023-04-06T00:33:18;5.70;1.00
12438;DHT22;6283;51.330;12.374;2023-04-06T00:35:45;5.60;1.00
12438;DHT22;6283;51.330;12.374;2023-04-06T00:38:11;5.80;1.00
12438;DHT22;6283;51.330;12.374;2023-04-06T00:40:36;5.90;1.00
12438;DHT22;6283;51.330;12.374;2023-04-06T00:43:02;5.80;1.00
12438;DHT22;6283;51.330;12.374;2023-04-06T00:45:28;5.90;1.00
12438;DHT22;6283;51.330;12.374;2023-04-06T00:47:54;5.90;1.00
12438;DHT22;6283;51.330;12.374;2023-04-06T00:50:20;5.70;1.00
12438;DHT22;6283;51.330;12.374;2023-04-06T00:52:46;5.70;1.00
12438;DHT22;6283;51.330;12.374;2023-04-06T00:55:11;5.70;1.00
12438;DHT22;6283;51.330;12.374;2023-04-06T00:57:37;5.90;1.00
12438;DHT22;6283;51.330;12.374;2023-04-06T01:00:03;5.90;1.00
12438;DHT22;6283;51.330;12.374;2023-04-06T01:02:29;5.80;1.00
12438;DHT22;6283;51.330;12.374;2023-04-06T01:04:55;5.90;1.00
12438;DHT22;6283;51.330;12.374;2023-04-06T01:07:21;5.60;1.00
12438;DHT22;6283;51.330;12.374;2023-04-06T01:09:47;5.70;1.00
12438;DHT22;6283;51.330;12.374;2023-04-06T01:12:12;5.80;1.00
12438;DHT22;6283;51.330;12.374;2023-04-06T01:14:38;5.70;1.00
12438;DHT22;6283;51.330;12.374;2023-04-06T01:17:04;5.80;1.00
12438;DHT22;6283;51.330;12.374;2023-04-06T01:19:30;5.90;1.00
12438;DHT22;6283;51.330;12.374;2023-04-06T01:21:55;5.60;1.00
12438;DHT22;6283;51.330;12.374;2023-04-06T01:24:21;5.80;1.00
12438;DHT22;6283;51.330;12.374;2023-04-06T01:26:47;5.80;1.00
12438;DHT22;6283;51.330;12.374;2023-04-06T01:29:13;5.60;1.00
12438;DHT22;6283;51.330;12.374;2023-04-06T01:31:39;5.70;1.00
12438;DHT22;6283;51.330;12.374;2023-04-06T01:34:05;5.80;1.00
12438;DHT22;6283;51.330;12.374;2023-04-06T01:36:31;5.80;1.00
12438;DHT22;6283;51.330;12.374;2023-04-06T01:38:57;5.80;1.00
12438;DHT22;6283;51.330;12.374;2023-04-06T01:41:22;5.70;1.00
12438;DHT22;6283;51.330;12.374;2023-04-06T01:43:48;5.80;1.00
12438;DHT22;6283;51.330;12.374;2023-04-06T01:46:15;5.70;1.00
12438;DHT22;6283;51.330;12.374;2023-04-06T01:48:41;5.40;1.00
12438;DHT22;6283;51.330;12.374;2023-04-06T01:51:07;5.70;1.00
12438;DHT22;6283;51.330;12.374;2023-04-06T01:53:32;5.40;1.00
12438;DHT22;6283;51.330;12.374;2023-04-06T01:55:58;5.50;1.00
12438;DHT22;6283;51.330;12.374;2023-04-06T01:58:24;5.50;1.00
12438;DHT22;6283;51.330;12.374;2023-04-06T02:00:49;5.40;1.00
12438;DHT22;6283;51.330;12.374;2023-04-06T02:03:15;5.40;1.00
12438;DHT22;6283;51.330;12.374;2023-04-06T02:05:40;5.40;1.00
12438;DHT22;6283;51.330;12.374;2023-04-06T02:08:07;5.50;1.00
12438;DHT22;6283;51.330;12.374;2023-04-06T02:10:34;5.60;1.00
12438;DHT22;6283;51.330;12.374;2023-04-06T02:13:00;5.10;1.00
12438;DHT22;6283;51.330;12.374;2023-04-06T02:15:26;5.10;1.00
12438;DHT22;6283;51.330;12.374;2023-04-06T02:17:52;5.30;1.00
12438;DHT22;6283;51.330;12.374;2023-04-06T02:20:18;5.30;1.00
12438;DHT22;6283;51.330;12.374;2023-04-06T02:22:44;5.30;1.00
12438;DHT22;6283;51.330;12.374;2023-04-06T02:25:10;4.90;1.00
12438;DHT22;6283;51.330;12.374;2023-04-06T02:27:36;5.00;1.00
12438;DHT22;6283;51.330;12.374;2023-04-06T02:30:05;5.20;1.00
12438;DHT22;6283;51.330;12.374;2023-04-06T02:32:31;5.10;1.00
12438;DHT22;6283;51.330;12.374;2023-04-06T02:34:56;5.00;1.00
12438;DHT22;6283;51.330;12.374;2023-04-06T02:37:22;4.90;1.00
12438;DHT22;6283;51.330;12.374;2023-04-06T02:39:49;4.90;1.00
12438;DHT22;6283;51.330;12.374;2023-04-06T02:42:15;5.00;1.00
12438;DHT22;6283;51.330;12.374;2023-04-06T02:44:41;4.80;1.00
12438;DHT22;6283;51.330;12.374;2023-04-06T02:47:07;5.20;1.00
12438;DHT22;6283;51.330;12.374;2023-04-06T02:49:33;5.10;1.00
12438;DHT22;6283;51.330;12.374;2023-04-06T02:51:59;5.00;1.00
12438;DHT22;6283;51.330;12.374;2023-04-06T02:54:24;4.80;1.00
12438;DHT22;6283;51.330;12.374;2023-04-06T02:56:50;4.90;1.00
12438;DHT22;6283;51.330;12.374;2023-04-06T02:59:16;5.10;1.00
12438;DHT22;6283;51.330;12.374;2023-04-06T03:01:41;5.00;1.00
12438;DHT22;6283;51.330;12.374;2023-04-06T03:04:07;4.90;1.00
12438;DHT22;6283;51.330;12.374;2023-04-06T03:06:33;5.10;1.00
12438;DHT22;6283;51.330;12.374;2023-04-06T03:08:58;4.90;1.00
12438;DHT22;6283;51.330;12.374;2023-04-06T03:11:24;4.80;1.00
12438;DHT22;6283;51.330;12.374;2023-04-06T03:13:51;5.00;1.00
12438;DHT22;6283;51.330;12.374;2023-04-06T03:16:17;4.80;1.00
12438;DHT22;6283;51.330;12.374;2023-04-06T03:18:43;4.90;1.00
12438;DHT22;6283;51.330;12.374;2023-04-06T03:21:10;4.80;1.00
12438;DHT22;6283;51.330;12.374;2023-04-06T03:23:36;4.70;1.00
12438;DHT22;6283;51.330;12.374;2023-04-06T03:26:02;4.90;1.00
12438;DHT22;6283;51.330;12.374;2023-04-06T03:28:30;4.70;1.00
12438;DHT22;6283;51.330;12.374;2023-04-06T03:30:55;4.80;1.00
12438;DHT22;6283;51.330;12.374;2023-04-06T03:33:21;4.80;1.00
12438;DHT22;6283;51.330;12.374;2023-04-06T03:35:47;4.50;1.00
12438;DHT22;6283;51.330;12.374;2023-04-06T03:38:12;4.80;1.00
12438;DHT22;6283;51.330;12.374;2023-04-06T03:40:38;4.60;1.00
12438;DHT22;6283;51.330;12.374;2023-04-06T03:43:04;4.50;1.00
12438;DHT22;6283;51.330;12.374;2023-04-06T03:45:30;4.70;1.00
12438;DHT22;6283;51.330;12.374;2023-04-06T03:47:55;4.50;1.00
12438;DHT22;6283;51.330;12.374;2023-04-06T03:50:21;4.60;1.00
12438;DHT22;6283;51.330;12.374;2023-04-06T03:52:47;4.40;1.00
12438;DHT22;6283;51.330;12.374;2023-04-06T03:55:12;4.30;1.00
12438;DHT22;6283;51.330;12.374;2023-04-06T03:57:38;4.30;1.00
12438;DHT22;6283;51.330;12.374;2023-04-06T04:00:04;4.30;1.00
12438;DHT22;6283;51.330;12.374;2023-04-06T04:02:30;4.20;1.00
12438;DHT22;6283;51.330;12.374;2023-04-06T04:04:55;4.30;1.00
12438;DHT22;6283;51.330;12.374;2023-04-06T04:07:21;4.20;1.00
12438;DHT22;6283;51.330;12.374;2023-04-06T04:09:47;4.00;1.00
12438;DHT22;6283;51.330;12.374;2023-04-06T04:12:12;4.10;1.00
12438;DHT22;6283;51.330;12.374;2023-04-06T04:14:40;4.10;1.00
12438;DHT22;6283;51.330;12.374;2023-04-06T04:17:05;4.40;1.00
12438;DHT22;6283;51.330;12.374;2023-04-06T04:19:31;4.30;1.00
12438;DHT22;6283;51.330;12.374;2023-04-06T04:21:56;4.50;1.00
12438;DHT22;6283;51.330;12.374;2023-04-06T04:24:22;4.60;1.00
12438;DHT22;6283;51.330;12.374;2023-04-06T04:26:48;4.70;1.00
12438;DHT22;6283;51.330;12.374;2023-04-06T04:29:13;4.90;1.00
12438;DHT22;6283;51.330;12.374;2023-04-06T04:31:39;4.80;1.00
12438;DHT22;6283;51.330;12.374;2023-04-06T04:34:05;4.60;1.00
12438;DHT22;6283;51.330;12.374;2023-04-06T04:36:32;4.50;1.00
12438;DHT22;6283;51.330;12.374;2023-04-06T04:38:57;4.70;1.00
12438;DHT22;6283;51.330;12.374;2023-04-06T04:41:23;4.40;1.00
12438;DHT22;6283;51.330;12.374;2023-04-06T04:43:49;4.40;1.00
12438;DHT22;6283;51.330;12.374;2023-04-06T04:46:14;4.40;1.00
12438;DHT22;6283;51.330;12.374;2023-04-06T04:48:40;4.40;1.00
12438;DHT22;6283;51.330;12.374;2023-04-06T04:51:06;4.30;1.00
12438;DHT22;6283;51.330;12.374;2023-04-06T04:53:32;4.40;1.00
12438;DHT22;6283;51.330;12.374;2023-04-06T04:55:57;4.40;1.00
12438;DHT22;6283;51.330;12.374;2023-04-06T04:58:23;4.40;1.00
12438;DHT22;6283;51.330;12.374;2023-04-06T05:00:49;4.30;1.00
12438;DHT22;6283;51.330;12.374;2023-04-06T05:03:21;4.50;1.00
12438;DHT22;6283;51.330;12.374;2023-04-06T05:05:47;4.20;1.00
12438;DHT22;6283;51.330;12.374;2023-04-06T05:08:13;4.30;1.00
12438;DHT22;6283;51.330;12.374;2023-04-06T05:10:39;4.20;1.00
12438;DHT22;6283;51.330;12.374;2023-04-06T05:13:05;4.30;1.00
12438;DHT22;6283;51.330;12.374;2023-04-06T05:15:30;4.30;1.00
12438;DHT22;6283;51.330;12.374;2023-04-06T05:17:56;4.30;1.00
12438;DHT22;6283;51.330;12.374;2023-04-06T05:20:22;4.20;1.00
12438;DHT22;6283;51.330;12.374;2023-04-06T05:22:48;4.30;1.00
12438;DHT22;6283;51.330;12.374;2023-04-06T05:25:14;4.30;1.00
12438;DHT22;6283;51.330;12.374;2023-04-06T05:27:40;4.50;1.00
12438;DHT22;6283;51.330;12.374;2023-04-06T05:30:07;4.50;1.00
12438;DHT22;6283;51.330;12.374;2023-04-06T05:32:33;4.40;1.00
12438;DHT22;6283;51.330;12.374;2023-04-06T05:34:59;4.30;1.00
12438;DHT22;6283;51.330;12.374;2023-04-06T05:37:25;4.40;1.00
12438;DHT22;6283;51.330;12.374;2023-04-06T05:39:50;4.40;1.00
12438;DHT22;6283;51.330;12.374;2023-04-06T05:42:16;4.40;1.00
12438;DHT22;6283;51.330;12.374;2023-04-06T05:44:42;4.50;1.00
12438;DHT22;6283;51.330;12.374;2023-04-06T05:47:08;4.50;1.00
12438;DHT22;6283;51.330;12.374;2023-04-06T05:49:33;4.40;1.00
12438;DHT22;6283;51.330;12.374;2023-04-06T05:52:00;4.50;1.00
12438;DHT22;6283;51.330;12.374;2023-04-06T05:54:26;4.50;1.00
12438;DHT22;6283;51.330;12.374;2023-04-06T05:56:52;4.80;1.00
12438;DHT22;6283;51.330;12.374;2023-04-06T05:59:18;4.60;1.00
12438;DHT22;6283;51.330;12.374;2023-04-06T06:01:43;4.60;1.00
12438;DHT22;6283;51.330;12.374;2023-04-06T06:04:09;4.70;1.00
12438;DHT22;6283;51.330;12.374;2023-04-06T06:06:35;4.70;1.00
12438;DHT22;6283;51.330;12.374;2023-04-06T06:09:02;4.80;1.00
12438;DHT22;6283;51.330;12.374;2023-04-06T06:11:29;5.20;1.00
12438;DHT22;6283;51.330;12.374;2023-04-06T06:13:55;5.00;1.00
12438;DHT22;6283;51.330;12.374;2023-04-06T06:16:21;5.00;1.00
12438;DHT22;6283;51.330;12.374;2023-04-06T06:18:47;5.10;1.00
12438;DHT22;6283;51.330;12.374;2023-04-06T06:21:13;5.40;1.00
12438;DHT22;6283;51.330;12.374;2023-04-06T06:23:39;5.50;1.00
12438;DHT22;6283;51.330;12.374;2023-04-06T06:26:04;5.30;1.00
12438;DHT22;6283;51.330;12.374;2023-04-06T06:28:31;5.40;1.00
12438;DHT22;6283;51.330;12.374;2023-04-06T06:30:56;5.60;1.00
12438;DHT22;6283;51.330;12.374;2023-04-06T06:33:24;5.70;1.00
12438;DHT22;6283;51.330;12.374;2023-04-06T06:35:51;5.80;1.00
12438;DHT22;6283;51.330;12.374;2023-04-06T06:38:17;5.60;1.00
12438;DHT22;6283;51.330;12.374;2023-04-06T06:40:44;5.60;1.00
12438;DHT22;6283;51.330;12.374;2023-04-06T06:43:10;5.70;1.00
12438;DHT22;6283;51.330;12.374;2023-04-06T06:45:36;5.80;1.00
12438;DHT22;6283;51.330;12.374;2023-04-06T06:48:02;5.80;1.00
12438;DHT22;6283;51.330;12.374;2023-04-06T06:50:27;5.90;1.00
12438;DHT22;6283;51.330;12.374;2023-04-06T06:52:53;5.70;1.00
12438;DHT22;6283;51.330;12.374;2023-04-06T06:55:19;6.10;1.00
12438;DHT22;6283;51.330;12.374;2023-04-06T06:57:45;5.90;1.00
12438;DHT22;6283;51.330;12.374;2023-04-06T07:00:12;5.90;1.00
12438;DHT22;6283;51.330;12.374;2023-04-06T07:02:39;5.80;1.00
12438;DHT22;6283;51.330;12.374;2023-04-06T07:05:05;6.10;1.00
12438;DHT22;6283;51.330;12.374;2023-04-06T07:07:34;6.30;1.00
12438;DHT22;6283;51.330;12.374;2023-04-06T07:10:01;6.40;1.00
12438;DHT22;6283;51.330;12.374;2023-04-06T07:12:26;6.40;1.00
12438;DHT22;6283;51.330;12.374;2023-04-06T07:14:52;6.30;1.00
12438;DHT22;6283;51.330;12.374;2023-04-06T07:17:18;6.20;1.00
12438;DHT22;6283;51.330;12.374;2023-04-06T07:19:44;6.60;1.00
12438;DHT22;6283;51.330;12.374;2023-04-06T07:22:10;6.80;1.00
12438;DHT22;6283;51.330;12.374;2023-04-06T07:24:36;6.70;1.00
12438;DHT22;6283;51.330;12.374;2023-04-06T07:27:02;7.00;1.00
12438;DHT22;6283;51.330;12.374;2023-04-06T07:29:28;6.90;1.00
12438;DHT22;6283;51.330;12.374;2023-04-06T07:31:54;6.90;1.00
12438;DHT22;6283;51.330;12.374;2023-04-06T07:34:20;7.00;1.00
12438;DHT22;6283;51.330;12.374;2023-04-06T07:36:46;7.10;1.00
12438;DHT22;6283;51.330;12.374;2023-04-06T07:39:12;7.40;1.00
12438;DHT22;6283;51.330;12.374;2023-04-06T07:41:38;7.30;1.00
12438;DHT22;6283;51.330;12.374;2023-04-06T07:44:04;7.30;1.00
12438;DHT22;6283;51.330;12.374;2023-04-06T07:46:30;7.40;1.00
12438;DHT22;6283;51.330;12.374;2023-04-06T07:49:00;7.50;1.00
12438;DHT22;6283;51.330;12.374;2023-04-06T07:51:29;7.40;1.00
12438;DHT22;6283;51.330;12.374;2023-04-06T07:53:54;7.70;1.00
12438;DHT22;6283;51.330;12.374;2023-04-06T07:56:21;7.80;1.00
12438;DHT22;6283;51.330;12.374;2023-04-06T07:58:47;7.50;1.00
12438;DHT22;6283;51.330;12.374;2023-04-06T08:01:13;7.60;1.00
12438;DHT22;6283;51.330;12.374;2023-04-06T08:03:39;7.80;1.00
12438;DHT22;6283;51.330;12.374;2023-04-06T08:06:05;7.90;1.00
12438;DHT22;6283;51.330;12.374;2023-04-06T08:08:31;7.90;1.00
12438;DHT22;6283;51.330;12.374;2023-04-06T08:10:57;7.80;1.00
12438;DHT22;6283;51.330;12.374;2023-04-06T08:13:22;8.10;1.00
12438;DHT22;6283;51.330;12.374;2023-04-06T08:15:48;8.10;1.00
12438;DHT22;6283;51.330;12.374;2023-04-06T08:18:14;8.00;1.00
12438;DHT22;6283;51.330;12.374;2023-04-06T08:20:40;8.00;1.00
12438;DHT22;6283;51.330;12.374;2023-04-06T08:23:06;8.00;1.00
12438;DHT22;6283;51.330;12.374;2023-04-06T08:25:35;8.20;1.00
12438;DHT22;6283;51.330;12.374;2023-04-06T08:28:01;8.30;1.00
12438;DHT22;6283;51.330;12.374;2023-04-06T08:30:27;8.40;1.00
12438;DHT22;6283;51.330;12.374;2023-04-06T08:32:53;8.50;1.00
12438;DHT22;6283;51.330;12.374;2023-04-06T08:35:18;8.60;1.00
12438;DHT22;6283;51.330;12.374;2023-04-06T08:37:44;8.80;1.00
12438;DHT22;6283;51.330;12.374;2023-04-06T08:40:10;8.70;1.00
12438;DHT22;6283;51.330;12.374;2023-04-06T08:42:40;8.70;1.00
12438;DHT22;6283;51.330;12.374;2023-04-06T08:45:09;9.10;1.00
12438;DHT22;6283;51.330;12.374;2023-04-06T08:47:36;9.00;1.00
12438;DHT22;6283;51.330;12.374;2023-04-06T08:50:04;9.10;1.00
12438;DHT22;6283;51.330;12.374;2023-04-06T08:52:32;9.20;1.00
12438;DHT22;6283;51.330;12.374;2023-04-06T08:54:59;9.30;1.00
12438;DHT22;6283;51.330;12.374;2023-04-06T08:57:25;9.50;1.00
12438;DHT22;6283;51.330;12.374;2023-04-06T08:59:52;9.20;1.00
12438;DHT22;6283;51.330;12.374;2023-04-06T09:02:19;9.30;1.00
12438;DHT22;6283;51.330;12.374;2023-04-06T09:04:47;9.50;1.00
12438;DHT22;6283;51.330;12.374;2023-04-06T09:07:14;9.60;1.00
12438;DHT22;6283;51.330;12.374;2023-04-06T09:09:41;9.50;1.00
12438;DHT22;6283;51.330;12.374;2023-04-06T09:12:25;9.90;1.00
12438;DHT22;6283;51.330;12.374;2023-04-06T09:14:52;9.60;1.00
12438;DHT22;6283;51.330;12.374;2023-04-06T09:17:22;9.90;1.00
12438;DHT22;6283;51.330;12.374;2023-04-06T09:19:48;10.10;1.00
12438;DHT22;6283;51.330;12.374;2023-04-06T09:22:14;10.00;1.00
12438;DHT22;6283;51.330;12.374;2023-04-06T09:24:47;9.90;1.00
12438;DHT22;6283;51.330;12.374;2023-04-06T09:27:14;10.00;1.00
12438;DHT22;6283;51.330;12.374;2023-04-06T09:29:41;10.20;1.00
12438;DHT22;6283;51.330;12.374;2023-04-06T09:32:08;10.30;1.00
12438;DHT22;6283;51.330;12.374;2023-04-06T09:34:38;10.40;1.00
12438;DHT22;6283;51.330;12.374;2023-04-06T09:37:14;10.10;1.00
12438;DHT22;6283;51.330;12.374;2023-04-06T09:39:40;10.40;1.00
12438;DHT22;6283;51.330;12.374;2023-04-06T09:42:05;10.50;1.00
12438;DHT22;6283;51.330;12.374;2023-04-06T09:44:31;10.70;1.00
12438;DHT22;6283;51.330;12.374;2023-04-06T09:46:57;10.50;1.00
12438;DHT22;6283;51.330;12.374;2023-04-06T09:49:24;10.30;1.00
12438;DHT22;6283;51.330;12.374;2023-04-06T09:51:58;10.30;1.00
12438;DHT22;6283;51.330;12.374;2023-04-06T09:54:30;10.20;1.00
12438;DHT22;6283;51.330;12.374;2023-04-06T10:07:56;10.00;1.00
12438;DHT22;6283;51.330;12.374;2023-04-06T10:10:23;10.10;1.00
12438;DHT22;6283;51.330;12.374;2023-04-06T10:12:48;9.90;1.00
12438;DHT22;6283;51.330;12.374;2023-04-06T10:15:15;10.10;1.00
12438;DHT22;6283;51.330;12.374;2023-04-06T10:17:41;10.00;1.00
12438;DHT22;6283;51.330;12.374;2023-04-06T10:20:13;9.90;1.00
12438;DHT22;6283;51.330;12.374;2023-04-06T10:22:55;10.40;1.00
12438;DHT22;6283;51.330;12.374;2023-04-06T10:25:27;10.40;1.00
12438;DHT22;6283;51.330;12.374;2023-04-06T10:28:00;10.80;1.00
12438;DHT22;6283;51.330;12.374;2023-04-06T10:30:26;10.90;1.00
12438;DHT22;6283;51.330;12.374;2023-04-06T10:32:53;11.20;1.00
12438;DHT22;6283;51.330;12.374;2023-04-06T10:35:18;11.20;1.00
12438;DHT22;6283;51.330;12.374;2023-04-06T10:38:01;11.30;1.00
12438;DHT22;6283;51.330;12.374;2023-04-06T10:40:28;11.80;1.00
12438;DHT22;6283;51.330;12.374;2023-04-06T10:42:54;11.70;1.00
12438;DHT22;6283;51.330;12.374;2023-04-06T10:45:22;11.80;1.00
12438;DHT22;6283;51.330;12.374;2023-04-06T10:47:48;12.00;1.00
12438;DHT22;6283;51.330;12.374;2023-04-06T10:50:15;11.90;1.00
12438;DHT22;6283;51.330;12.374;2023-04-06T10:52:45;12.40;1.00
12438;DHT22;6283;51.330;12.374;2023-04-06T10:55:15;12.30;1.00
12438;DHT22;6283;51.330;12.374;2023-04-06T10:57:41;12.40;1.00
12438;DHT22;6283;51.330;12.374;2023-04-06T11:00:07;12.40;1.00
12438;DHT22;6283;51.330;12.374;2023-04-06T11:02:35;12.30;1.00
12438;DHT22;6283;51.330;12.374;2023-04-06T11:05:01;12.30;1.00
12438;DHT22;6283;51.330;12.374;2023-04-06T11:07:27;12.00;1.00
12438;DHT22;6283;51.330;12.374;2023-04-06T11:09:55;12.00;1.00
12438;DHT22;6283;51.330;12.374;2023-04-06T11:12:28;12.30;1.00
12438;DHT22;6283;51.330;12.374;2023-04-06T11:17:28;12.20;1.00
12438;DHT22;6283;51.330;12.374;2023-04-06T11:19:55;11.90;1.00
12438;DHT22;6283;51.330;12.374;2023-04-06T11:22:20;11.70;1.00
12438;DHT22;6283;51.330;12.374;2023-04-06T11:24:46;11.80;1.00
12438;DHT22;6283;51.330;12.374;2023-04-06T11:27:12;11.80;1.00
12438;DHT22;6283;51.330;12.374;2023-04-06T11:29:40;11.70;1.00
12438;DHT22;6283;51.330;12.374;2023-04-06T11:32:06;11.80;1.00
12438;DHT22;6283;51.330;12.374;2023-04-06T11:34:37;12.10;1.00
12438;DHT22;6283;51.330;12.374;2023-04-06T11:37:07;12.20;1.00
12438;DHT22;6283;51.330;12.374;2023-04-06T11:42:12;12.70;1.00
12438;DHT22;6283;51.330;12.374;2023-04-06T11:44:45;13.30;1.00
12438;DHT22;6283;51.330;12.374;2023-04-06T11:47:15;13.50;1.00
12438;DHT22;6283;51.330;12.374;2023-04-06T11:49:42;13.80;1.00
12438;DHT22;6283;51.330;12.374;2023-04-06T11:52:23;14.10;1.00
12438;DHT22;6283;51.330;12.374;2023-04-06T11:54:50;14.00;1.00
12438;DHT22;6283;51.330;12.374;2023-04-06T11:57:19;14.00;1.00
12438;DHT22;6283;51.330;12.374;2023-04-06T11:59:45;13.80;1.00
12438;DHT22;6283;51.330;12.374;2023-04-06T12:02:11;13.90;1.00
12438;DHT22;6283;51.330;12.374;2023-04-06T12:04:37;14.00;1.00
12438;DHT22;6283;51.330;12.374;2023-04-06T12:07:03;14.30;1.00
12438;DHT22;6283;51.330;12.374;2023-04-06T12:09:29;14.60;1.00
12438;DHT22;6283;51.330;12.374;2023-04-06T12:11:55;14.90;1.00
12438;DHT22;6283;51.330;12.374;2023-04-06T12:14:21;15.00;1.00
12438;DHT22;6283;51.330;12.374;2023-04-06T12:16:47;15.20;1.00
12438;DHT22;6283;51.330;12.374;2023-04-06T12:19:13;15.40;1.00
12438;DHT22;6283;51.330;12.374;2023-04-06T12:21:39;15.80;1.00
12438;DHT22;6283;51.330;12.374;2023-04-06T12:24:06;15.90;1.00
12438;DHT22;6283;51.330;12.374;2023-04-06T12:26:32;16.10;1.00
12438;DHT22;6283;51.330;12.374;2023-04-06T12:28:59;16.30;1.00
12438;DHT22;6283;51.330;12.374;2023-04-06T12:31:32;16.60;1.00
12438;DHT22;6283;51.330;12.374;2023-04-06T12:33:58;16.90;1.00
12438;DHT22;6283;51.330;12.374;2023-04-06T12:36:25;17.00;1.00
12438;DHT22;6283;51.330;12.374;2023-04-06T12:38:50;17.10;1.00
12438;DHT22;6283;51.330;12.374;2023-04-06T12:41:17;17.20;1.00
12438;DHT22;6283;51.330;12.374;2023-04-06T12:43:43;17.30;1.00
12438;DHT22;6283;51.330;12.374;2023-04-06T12:46:10;17.40;1.00
12438;DHT22;6283;51.330;12.374;2023-04-06T12:48:36;17.50;1.00
12438;DHT22;6283;51.330;12.374;2023-04-06T12:51:05;17.70;1.00
12438;DHT22;6283;51.330;12.374;2023-04-06T12:53:32;17.90;1.00
12438;DHT22;6283;51.330;12.374;2023-04-06T12:55:58;18.00;1.00
12438;DHT22;6283;51.330;12.374;2023-04-06T12:58:24;18.10;1.00
12438;DHT22;6283;51.330;12.374;2023-04-06T13:00:54;18.20;1.00
12438;DHT22;6283;51.330;12.374;2023-04-06T13:03:20;18.40;1.00
12438;DHT22;6283;51.330;12.374;2023-04-06T13:05:50;18.60;1.00
12438;DHT22;6283;51.330;12.374;2023-04-06T13:08:17;18.60;1.00
12438;DHT22;6283;51.330;12.374;2023-04-06T13:10:52;18.50;1.00
12438;DHT22;6283;51.330;12.374;2023-04-06T13:13:23;18.40;1.00
12438;DHT22;6283;51.330;12.374;2023-04-06T13:15:50;18.40;1.00
12438;DHT22;6283;51.330;12.374;2023-04-06T13:18:16;18.40;1.00
12438;DHT22;6283;51.330;12.374;2023-04-06T13:20:42;18.40;1.00
12438;DHT22;6283;51.330;12.374;2023-04-06T13:23:08;18.30;1.00
12438;DHT22;6283;51.330;12.374;2023-04-06T13:25:34;18.40;1.00
12438;DHT22;6283;51.330;12.374;2023-04-06T13:27:59;18.60;1.00
12438;DHT22;6283;51.330;12.374;2023-04-06T13:30:25;18.80;1.00
12438;DHT22;6283;51.330;12.374;2023-04-06T13:32:51;18.80;1.00
12438;DHT22;6283;51.330;12.374;2023-04-06T13:35:17;18.80;1.00
12438;DHT22;6283;51.330;12.374;2023-04-06T13:37:43;18.90;1.00
12438;DHT22;6283;51.330;12.374;2023-04-06T13:40:09;18.90;1.00
12438;DHT22;6283;51.330;12.374;2023-04-06T13:42:36;19.00;1.00
12438;DHT22;6283;51.330;12.374;2023-04-06T13:45:03;19.10;1.00
12438;DHT22;6283;51.330;12.374;2023-04-06T13:47:29;19.20;1.00
12438;DHT22;6283;51.330;12.374;2023-04-06T13:49:55;19.40;1.00
12438;DHT22;6283;51.330;12.374;2023-04-06T13:52:21;19.50;1.00
12438;DHT22;6283;51.330;12.374;2023-04-06T13:54:49;19.60;1.00
12438;DHT22;6283;51.330;12.374;2023-04-06T13:57:15;19.50;1.00
12438;DHT22;6283;51.330;12.374;2023-04-06T13:59:41;19.50;1.00
12438;DHT22;6283;51.330;12.374;2023-04-06T14:02:09;19.50;1.00
12438;DHT22;6283;51.330;12.374;2023-04-06T14:04:35;19.50;1.00
12438;DHT22;6283;51.330;12.374;2023-04-06T14:07:02;19.60;1.00
12438;DHT22;6283;51.330;12.374;2023-04-06T14:09:28;19.70;1.00
12438;DHT22;6283;51.330;12.374;2023-04-06T14:11:55;19.70;1.00
12438;DHT22;6283;51.330;12.374;2023-04-06T14:14:21;19.70;1.00
12438;DHT22;6283;51.330;12.374;2023-04-06T14:16:47;19.80;1.00
12438;DHT22;6283;51.330;12.374;2023-04-06T14:19:15;19.80;1.00
12438;DHT22;6283;51.330;12.374;2023-04-06T14:21:44;20.00;1.00
12438;DHT22;6283;51.330;12.374;2023-04-06T14:24:10;20.20;1.00
12438;DHT22;6283;51.330;12.374;2023-04-06T14:26:37;20.50;1.00
12438;DHT22;6283;51.330;12.374;2023-04-06T14:29:03;20.70;1.00
12438;DHT22;6283;51.330;12.374;2023-04-06T14:31:30;20.80;1.00
12438;DHT22;6283;51.330;12.374;2023-04-06T14:33:56;20.80;1.00
12438;DHT22;6283;51.330;12.374;2023-04-06T14:36:22;20.90;1.00
12438;DHT22;6283;51.330;12.374;2023-04-06T14:38:47;21.00;1.00
12438;DHT22;6283;51.330;12.374;2023-04-06T14:41:17;21.00;1.00
12438;DHT22;6283;51.330;12.374;2023-04-06T14:43:43;21.00;1.00
12438;DHT22;6283;51.330;12.374;2023-04-06T14:46:09;21.00;1.00
12438;DHT22;6283;51.330;12.374;2023-04-06T14:48:35;21.10;1.00
12438;DHT22;6283;51.330;12.374;2023-04-06T14:51:01;21.20;1.00
12438;DHT22;6283;51.330;12.374;2023-04-06T14:53:27;21.40;1.00
12438;DHT22;6283;51.330;12.374;2023-04-06T14:55:54;21.60;1.00
12438;DHT22;6283;51.330;12.374;2023-04-06T14:58:21;21.70;1.00
12438;DHT22;6283;51.330;12.374;2023-04-06T15:00:46;21.80;1.00
12438;DHT22;6283;51.330;12.374;2023-04-06T15:03:13;21.80;1.00
12438;DHT22;6283;51.330;12.374;2023-04-06T15:05:38;21.90;1.00
12438;DHT22;6283;51.330;12.374;2023-04-06T15:08:04;22.00;1.00
12438;DHT22;6283;51.330;12.374;2023-04-06T15:10:33;22.20;1.00
12438;DHT22;6283;51.330;12.374;2023-04-06T15:12:59;22.30;1.00
12438;DHT22;6283;51.330;12.374;2023-04-06T15:15:25;22.30;1.00
12438;DHT22;6283;51.330;12.374;2023-04-06T15:17:51;22.20;1.00
12438;DHT22;6283;51.330;12.374;2023-04-06T15:20:16;22.20;1.00
12438;DHT22;6283;51.330;12.374;2023-04-06T15:22:42;22.20;1.00
12438;DHT22;6283;51.330;12.374;2023-04-06T15:25:08;22.30;1.00
12438;DHT22;6283;51.330;12.374;2023-04-06T15:27:33;22.40;1.00
12438;DHT22;6283;51.330;12.374;2023-04-06T15:29:59;22.50;1.00
12438;DHT22;6283;51.330;12.374;2023-04-06T15:32:25;22.70;1.00
12438;DHT22;6283;51.330;12.374;2023-04-06T15:34:53;22.70;1.00
12438;DHT22;6283;51.330;12.374;2023-04-06T15:37:18;22.70;1.00
12438;DHT22;6283;51.330;12.374;2023-04-06T15:39:44;22.80;1.00
12438;DHT22;6283;51.330;12.374;2023-04-06T15:42:10;22.90;1.00
12438;DHT22;6283;51.330;12.374;2023-04-06T15:44:36;23.00;1.00
12438;DHT22;6283;51.330;12.374;2023-04-06T15:47:01;23.10;1.00
12438;DHT22;6283;51.330;12.374;2023-04-06T15:49:27;23.10;1.00
12438;DHT22;6283;51.330;12.374;2023-04-06T15:51:53;23.10;1.00
12438;DHT22;6283;51.330;12.374;2023-04-06T15:54:18;22.90;1.00
12438;DHT22;6283;51.330;12.374;2023-04-06T15:56:46;22.80;1.00
12438;DHT22;6283;51.330;12.374;2023-04-06T15:59:12;22.80;1.00
12438;DHT22;6283;51.330;12.374;2023-04-06T16:01:37;22.90;1.00
12438;DHT22;6283;51.330;12.374;2023-04-06T16:04:06;23.00;1.00
12438;DHT22;6283;51.330;12.374;2023-04-06T16:06:33;23.10;1.00